sensor_id;sensor_type;location;lat;lon;timestamp;temperature;humidity
70534;SHT31;58088;51.186;17.130;2023-08-06T00:00:12;17.32;80.99
70534;SHT31;58088;51.186;17.130;2023-08-06T00:02:40;17.33;80.99
70534;SHT31;58088;51.186;17.130;2023-08-06T00:05:07;17.34;81.01
70534;SHT31;58088;51.186;17.130;2023-08-06T00:07:33;17.34;81.00
70534;SHT31;58088;51.186;17.130;2023-08-06T00:09:59;17.35;80.99
70534;SHT31;58088;51.186;17.130;2023-08-06T00:12:25;17.35;80.96
70534;SHT31;58088;51.186;17.130;2023-08-06T00:14:52;17.34;81.02
70534;SHT31;58088;51.186;17.130;2023-08-06T00:17:19;17.34;80.97
70534;SHT31;58088;51.186;17.130;2023-08-06T00:19:45;17.34;80.94
70534;SHT31;58088;51.186;17.130;2023-08-06T00:22:11;17.35;80.99
70534;SHT31;58088;51.186;17.130;2023-08-06T00:24:38;17.35;81.00
70534;SHT31;58088;51.186;17.130;2023-08-06T00:27:04;17.36;81.07
70534;SHT31;58088;51.186;17.130;2023-08-06T00:29:31;17.38;80.99
70534;SHT31;58088;51.186;17.130;2023-08-06T00:31:57;17.36;81.03
70534;SHT31;58088;51.186;17.130;2023-08-06T00:34:24;17.36;81.08
70534;SHT31;58088;51.186;17.130;2023-08-06T00:36:50;17.38;80.98
70534;SHT31;58088;51.186;17.130;2023-08-06T00:39:17;17.38;81.01
70534;SHT31;58088;51.186;17.130;2023-08-06T00:41:43;17.38;81.01
70534;SHT31;58088;51.186;17.130;2023-08-06T00:44:09;17.37;81.01
70534;SHT31;58088;51.186;17.130;2023-08-06T00:46:35;17.38;81.08
70534;SHT31;58088;51.186;17.130;2023-08-06T00:49:03;17.38;81.01
70534;SHT31;58088;51.186;17.130;2023-08-06T00:51:31;17.38;81.01
70534;SHT31;58088;51.186;17.130;2023-08-06T00:53:58;17.38;80.99
70534;SHT31;58088;51.186;17.130;2023-08-06T00:56:25;17.39;80.95
70534;SHT31;58088;51.186;17.130;2023-08-06T00:58:54;17.39;80.92
70534;SHT31;58088;51.186;17.130;2023-08-06T01:01:22;17.37;80.93
70534;SHT31;58088;51.186;17.130;2023-08-06T01:03:49;17.38;80.89
70534;SHT31;58088;51.186;17.130;2023-08-06T01:06:17;17.37;80.90
70534;SHT31;58088;51.186;17.130;2023-08-06T01:09:01;17.34;80.92
70534;SHT31;58088;51.186;17.130;2023-08-06T01:15:00;17.31;80.99
70534;SHT31;58088;51.186;17.130;2023-08-06T01:17:46;17.30;80.99
70534;SHT31;58088;51.186;17.130;2023-08-06T01:20:13;17.30;80.92
70534;SHT31;58088;51.186;17.130;2023-08-06T01:22:39;17.30;80.93
70534;SHT31;58088;51.186;17.130;2023-08-06T01:25:06;17.29;80.88
70534;SHT31;58088;51.186;17.130;2023-08-06T01:27:44;17.29;80.84
70534;SHT31;58088;51.186;17.130;2023-08-06T01:30:20;17.28;80.80
70534;SHT31;58088;51.186;17.130;2023-08-06T01:32:59;17.26;80.86
70534;SHT31;58088;51.186;17.130;2023-08-06T01:35:30;17.26;80.83
70534;SHT31;58088;51.186;17.130;2023-08-06T01:37:58;17.25;80.84
70534;SHT31;58088;51.186;17.130;2023-08-06T01:40:27;17.23;80.88
70534;SHT31;58088;51.186;17.130;2023-08-06T01:42:55;17.23;80.89
70534;SHT31;58088;51.186;17.130;2023-08-06T01:45:21;17.24;80.83
70534;SHT31;58088;51.186;17.130;2023-08-06T01:47:48;17.26;80.84
70534;SHT31;58088;51.186;17.130;2023-08-06T01:50:14;17.27;80.75
70534;SHT31;58088;51.186;17.130;2023-08-06T01:52:41;17.27;80.72
70534;SHT31;58088;51.186;17.130;2023-08-06T01:55:07;17.27;80.77
70534;SHT31;58088;51.186;17.130;2023-08-06T01:57:33;17.25;80.73
70534;SHT31;58088;51.186;17.130;2023-08-06T02:00:00;17.24;80.81
70534;SHT31;58088;51.186;17.130;2023-08-06T02:02:26;17.24;80.90
70534;SHT31;58088;51.186;17.130;2023-08-06T02:04:52;17.26;80.98
70534;SHT31;58088;51.186;17.130;2023-08-06T02:07:19;17.28;81.03
70534;SHT31;58088;51.186;17.130;2023-08-06T02:09:45;17.28;81.00
70534;SHT31;58088;51.186;17.130;2023-08-06T02:12:11;17.28;80.89
70534;SHT31;58088;51.186;17.130;2023-08-06T02:14:37;17.27;80.79
70534;SHT31;58088;51.186;17.130;2023-08-06T02:17:03;17.25;80.76
70534;SHT31;58088;51.186;17.130;2023-08-06T02:19:29;17.24;80.79
70534;SHT31;58088;51.186;17.130;2023-08-06T02:21:56;17.22;80.76
70534;SHT31;58088;51.186;17.130;2023-08-06T02:24:22;17.20;80.78
70534;SHT31;58088;51.186;17.130;2023-08-06T02:26:48;17.20;80.78
70534;SHT31;58088;51.186;17.130;2023-08-06T02:29:17;17.17;80.71
70534;SHT31;58088;51.186;17.130;2023-08-06T02:31:43;17.16;80.77
70534;SHT31;58088;51.186;17.130;2023-08-06T02:34:09;17.14;80.94
70534;SHT31;58088;51.186;17.130;2023-08-06T02:36:35;17.14;80.99
70534;SHT31;58088;51.186;17.130;2023-08-06T02:39:01;17.14;80.95
70534;SHT31;58088;51.186;17.130;2023-08-06T02:41:29;17.11;80.87
70534;SHT31;58088;51.186;17.130;2023-08-06T02:43:56;17.08;81.06
70534;SHT31;58088;51.186;17.130;2023-08-06T02:46:22;17.09;81.09
70534;SHT31;58088;51.186;17.130;2023-08-06T02:48:49;17.07;81.14
70534;SHT31;58088;51.186;17.130;2023-08-06T02:51:16;17.08;81.12
70534;SHT31;58088;51.186;17.130;2023-08-06T02:53:42;17.08;80.95
70534;SHT31;58088;51.186;17.130;2023-08-06T02:56:09;17.07;80.95
70534;SHT31;58088;51.186;17.130;2023-08-06T02:58:45;17.05;81.11
70534;SHT31;58088;51.186;17.130;2023-08-06T03:01:24;17.06;81.20
70534;SHT31;58088;51.186;17.130;2023-08-06T03:03:55;17.06;81.17
70534;SHT31;58088;51.186;17.130;2023-08-06T03:06:26;17.05;81.10
70534;SHT31;58088;51.186;17.130;2023-08-06T03:08:53;17.06;81.09
70534;SHT31;58088;51.186;17.130;2023-08-06T03:11:23;17.09;81.17
70534;SHT31;58088;51.186;17.130;2023-08-06T03:13:51;17.09;81.18
70534;SHT31;58088;51.186;17.130;2023-08-06T03:16:17;17.08;80.99
70534;SHT31;58088;51.186;17.130;2023-08-06T03:18:44;17.07;81.09
70534;SHT31;58088;51.186;17.130;2023-08-06T03:21:11;17.08;81.05
70534;SHT31;58088;51.186;17.130;2023-08-06T03:23:37;17.08;80.95
70534;SHT31;58088;51.186;17.130;2023-08-06T03:26:04;17.06;80.80
70534;SHT31;58088;51.186;17.130;2023-08-06T03:28:32;17.04;80.84
70534;SHT31;58088;51.186;17.130;2023-08-06T03:31:00;17.03;80.78
70534;SHT31;58088;51.186;17.130;2023-08-06T03:33:28;17.01;80.80
70534;SHT31;58088;51.186;17.130;2023-08-06T03:35:56;16.97;80.73
70534;SHT31;58088;51.186;17.130;2023-08-06T03:38:22;16.92;80.85
70534;SHT31;58088;51.186;17.130;2023-08-06T03:40:49;16.91;81.08
70534;SHT31;58088;51.186;17.130;2023-08-06T03:43:15;16.91;81.08
70534;SHT31;58088;51.186;17.130;2023-08-06T03:45:42;16.90;81.22
70534;SHT31;58088;51.186;17.130;2023-08-06T03:48:10;16.90;81.17
70534;SHT31;58088;51.186;17.130;2023-08-06T03:50:37;16.89;81.21
70534;SHT31;58088;51.186;17.130;2023-08-06T03:53:04;16.89;81.17
70534;SHT31;58088;51.186;17.130;2023-08-06T03:55:31;16.88;81.04
70534;SHT31;58088;51.186;17.130;2023-08-06T03:57:57;16.85;81.13
70534;SHT31;58088;51.186;17.130;2023-08-06T04:00:24;16.85;81.28
70534;SHT31;58088;51.186;17.130;2023-08-06T04:02:51;16.86;81.23
70534;SHT31;58088;51.186;17.130;2023-08-06T04:05:18;16.86;81.13
70534;SHT31;58088;51.186;17.130;2023-08-06T04:07:44;16.85;81.07
70534;SHT31;58088;51.186;17.130;2023-08-06T04:10:11;16.85;81.08
70534;SHT31;58088;51.186;17.130;2023-08-06T04:12:37;16.85;80.99
70534;SHT31;58088;51.186;17.130;2023-08-06T04:15:05;16.86;80.99
70534;SHT31;58088;51.186;17.130;2023-08-06T04:17:32;16.85;80.86
70534;SHT31;58088;51.186;17.130;2023-08-06T04:19:58;16.83;80.79
70534;SHT31;58088;51.186;17.130;2023-08-06T04:22:25;16.78;80.71
70534;SHT31;58088;51.186;17.130;2023-08-06T04:24:52;16.74;80.83
70534;SHT31;58088;51.186;17.130;2023-08-06T04:27:18;16.70;80.81
70534;SHT31;58088;51.186;17.130;2023-08-06T04:29:45;16.68;80.95
70534;SHT31;58088;51.186;17.130;2023-08-06T04:32:12;16.65;80.87
70534;SHT31;58088;51.186;17.130;2023-08-06T04:34:43;16.62;80.90
70534;SHT31;58088;51.186;17.130;2023-08-06T04:37:10;16.58;81.06
70534;SHT31;58088;51.186;17.130;2023-08-06T04:39:37;16.60;81.27
70534;SHT31;58088;51.186;17.130;2023-08-06T04:42:04;16.59;81.28
70534;SHT31;58088;51.186;17.130;2023-08-06T04:44:31;16.61;81.39
70534;SHT31;58088;51.186;17.130;2023-08-06T04:46:57;16.62;81.30
70534;SHT31;58088;51.186;17.130;2023-08-06T04:49:24;16.64;81.30
70534;SHT31;58088;51.186;17.130;2023-08-06T04:51:51;16.65;81.27
70534;SHT31;58088;51.186;17.130;2023-08-06T04:54:17;16.67;81.40
70534;SHT31;58088;51.186;17.130;2023-08-06T04:56:44;16.69;81.39
70534;SHT31;58088;51.186;17.130;2023-08-06T04:59:11;16.69;81.33
70534;SHT31;58088;51.186;17.130;2023-08-06T05:01:37;16.66;81.27
70534;SHT31;58088;51.186;17.130;2023-08-06T05:04:03;16.65;81.36
70534;SHT31;58088;51.186;17.130;2023-08-06T05:06:30;16.68;81.39
70534;SHT31;58088;51.186;17.130;2023-08-06T05:08:59;16.68;81.26
70534;SHT31;58088;51.186;17.130;2023-08-06T05:11:25;16.66;81.18
70534;SHT31;58088;51.186;17.130;2023-08-06T05:13:52;16.65;81.23
70534;SHT31;58088;51.186;17.130;2023-08-06T05:16:18;16.64;81.16
70534;SHT31;58088;51.186;17.130;2023-08-06T05:18:45;16.65;81.22
70534;SHT31;58088;51.186;17.130;2023-08-06T05:21:15;16.65;81.28
70534;SHT31;58088;51.186;17.130;2023-08-06T05:23:42;16.67;81.31
70534;SHT31;58088;51.186;17.130;2023-08-06T05:26:09;16.67;81.19
70534;SHT31;58088;51.186;17.130;2023-08-06T05:28:35;16.67;81.11
70534;SHT31;58088;51.186;17.130;2023-08-06T05:31:04;16.65;81.13
70534;SHT31;58088;51.186;17.130;2023-08-06T05:33:31;16.63;81.09
70534;SHT31;58088;51.186;17.130;2023-08-06T05:35:57;16.64;81.16
70534;SHT31;58088;51.186;17.130;2023-08-06T05:38:24;16.63;81.16
70534;SHT31;58088;51.186;17.130;2023-08-06T05:40:50;16.61;81.18
70534;SHT31;58088;51.186;17.130;2023-08-06T05:43:16;16.61;81.26
70534;SHT31;58088;51.186;17.130;2023-08-06T05:45:46;16.60;81.27
70534;SHT31;58088;51.186;17.130;2023-08-06T05:48:14;16.61;81.21
70534;SHT31;58088;51.186;17.130;2023-08-06T05:50:41;16.60;81.15
70534;SHT31;58088;51.186;17.130;2023-08-06T05:53:07;16.60;81.14
70534;SHT31;58088;51.186;17.130;2023-08-06T05:55:34;16.60;81.11
70534;SHT31;58088;51.186;17.130;2023-08-06T05:58:01;16.57;81.15
70534;SHT31;58088;51.186;17.130;2023-08-06T06:00:27;16.58;81.25
70534;SHT31;58088;51.186;17.130;2023-08-06T06:02:53;16.59;81.26
70534;SHT31;58088;51.186;17.130;2023-08-06T06:05:20;16.58;81.20
70534;SHT31;58088;51.186;17.130;2023-08-06T06:07:46;16.58;81.26
70534;SHT31;58088;51.186;17.130;2023-08-06T06:10:12;16.59;81.38
70534;SHT31;58088;51.186;17.130;2023-08-06T06:12:38;16.58;81.35
70534;SHT31;58088;51.186;17.130;2023-08-06T06:15:06;16.58;81.47
70534;SHT31;58088;51.186;17.130;2023-08-06T06:17:35;16.59;81.53
70534;SHT31;58088;51.186;17.130;2023-08-06T06:20:01;16.60;81.40
70534;SHT31;58088;51.186;17.130;2023-08-06T06:22:29;16.59;81.37
70534;SHT31;58088;51.186;17.130;2023-08-06T06:24:56;16.58;81.29
70534;SHT31;58088;51.186;17.130;2023-08-06T06:27:22;16.59;81.22
70534;SHT31;58088;51.186;17.130;2023-08-06T06:29:48;16.61;81.20
70534;SHT31;58088;51.186;17.130;2023-08-06T06:32:15;16.64;81.21
70534;SHT31;58088;51.186;17.130;2023-08-06T06:34:41;16.66;81.12
70534;SHT31;58088;51.186;17.130;2023-08-06T06:37:07;16.66;81.07
70534;SHT31;58088;51.186;17.130;2023-08-06T06:39:33;16.62;81.17
70534;SHT31;58088;51.186;17.130;2023-08-06T06:42:00;16.62;81.27
70534;SHT31;58088;51.186;17.130;2023-08-06T06:44:30;16.62;81.28
70534;SHT31;58088;51.186;17.130;2023-08-06T06:46:57;16.59;81.09
70534;SHT31;58088;51.186;17.130;2023-08-06T06:49:24;16.56;81.20
70534;SHT31;58088;51.186;17.130;2023-08-06T06:52:03;16.55;81.22
70534;SHT31;58088;51.186;17.130;2023-08-06T06:54:30;16.56;81.28
70534;SHT31;58088;51.186;17.130;2023-08-06T06:56:57;16.55;81.35
70534;SHT31;58088;51.186;17.130;2023-08-06T06:59:23;16.57;81.41
70534;SHT31;58088;51.186;17.130;2023-08-06T07:01:50;16.60;81.50
70534;SHT31;58088;51.186;17.130;2023-08-06T07:04:16;16.61;81.37
70534;SHT31;58088;51.186;17.130;2023-08-06T07:06:42;16.62;81.27
70534;SHT31;58088;51.186;17.130;2023-08-06T07:09:08;16.62;81.37
70534;SHT31;58088;51.186;17.130;2023-08-06T07:11:35;16.63;81.46
70534;SHT31;58088;51.186;17.130;2023-08-06T07:14:02;16.67;81.47
70534;SHT31;58088;51.186;17.130;2023-08-06T07:16:28;16.67;81.39
70534;SHT31;58088;51.186;17.130;2023-08-06T07:18:55;16.68;81.39
70534;SHT31;58088;51.186;17.130;2023-08-06T07:21:21;16.70;81.37
70534;SHT31;58088;51.186;17.130;2023-08-06T07:23:48;16.70;81.40
70534;SHT31;58088;51.186;17.130;2023-08-06T07:26:17;16.69;81.37
70534;SHT31;58088;51.186;17.130;2023-08-06T07:28:43;16.70;81.34
70534;SHT31;58088;51.186;17.130;2023-08-06T07:31:10;16.72;81.37
70534;SHT31;58088;51.186;17.130;2023-08-06T07:33:36;16.74;81.37
70534;SHT31;58088;51.186;17.130;2023-08-06T07:36:10;16.76;81.44
70534;SHT31;58088;51.186;17.130;2023-08-06T07:38:41;16.80;81.44
70534;SHT31;58088;51.186;17.130;2023-08-06T07:41:07;16.83;81.34
70534;SHT31;58088;51.186;17.130;2023-08-06T07:43:34;16.84;81.25
70534;SHT31;58088;51.186;17.130;2023-08-06T07:46:01;16.86;81.30
70534;SHT31;58088;51.186;17.130;2023-08-06T07:48:28;16.90;81.30
70534;SHT31;58088;51.186;17.130;2023-08-06T07:50:54;16.92;81.24
70534;SHT31;58088;51.186;17.130;2023-08-06T07:53:21;16.93;81.10
70534;SHT31;58088;51.186;17.130;2023-08-06T07:55:52;16.93;81.11
70534;SHT31;58088;51.186;17.130;2023-08-06T07:58:20;16.95;81.13
70534;SHT31;58088;51.186;17.130;2023-08-06T08:00:47;16.94;80.98
70534;SHT31;58088;51.186;17.130;2023-08-06T08:03:14;16.95;80.93
70534;SHT31;58088;51.186;17.130;2023-08-06T08:05:42;16.96;80.99
70534;SHT31;58088;51.186;17.130;2023-08-06T08:08:09;16.97;80.92
70534;SHT31;58088;51.186;17.130;2023-08-06T08:10:36;16.97;80.92
70534;SHT31;58088;51.186;17.130;2023-08-06T08:13:04;16.96;80.94
70534;SHT31;58088;51.186;17.130;2023-08-06T08:15:31;16.98;80.93
70534;SHT31;58088;51.186;17.130;2023-08-06T08:17:58;16.98;80.97
70534;SHT31;58088;51.186;17.130;2023-08-06T08:20:26;16.98;80.96
70534;SHT31;58088;51.186;17.130;2023-08-06T08:22:58;16.99;80.99
70534;SHT31;58088;51.186;17.130;2023-08-06T08:25:30;16.98;81.03
70534;SHT31;58088;51.186;17.130;2023-08-06T08:27:57;16.98;80.98
70534;SHT31;58088;51.186;17.130;2023-08-06T08:30:23;17.01;81.08
70534;SHT31;58088;51.186;17.130;2023-08-06T08:32:50;17.03;81.08
70534;SHT31;58088;51.186;17.130;2023-08-06T08:35:17;17.08;81.16
70534;SHT31;58088;51.186;17.130;2023-08-06T08:37:43;17.10;81.00
70534;SHT31;58088;51.186;17.130;2023-08-06T08:40:11;17.14;80.97
70534;SHT31;58088;51.186;17.130;2023-08-06T08:42:37;17.18;80.98
70534;SHT31;58088;51.186;17.130;2023-08-06T08:45:11;17.21;81.10
70534;SHT31;58088;51.186;17.130;2023-08-06T08:47:42;17.26;81.05
70534;SHT31;58088;51.186;17.130;2023-08-06T08:50:10;17.28;80.97
70534;SHT31;58088;51.186;17.130;2023-08-06T08:52:39;17.27;80.72
70534;SHT31;58088;51.186;17.130;2023-08-06T08:55:07;17.25;80.62
70534;SHT31;58088;51.186;17.130;2023-08-06T08:57:34;17.22;80.65
70534;SHT31;58088;51.186;17.130;2023-08-06T09:00:00;17.22;80.74
70534;SHT31;58088;51.186;17.130;2023-08-06T09:02:28;17.25;80.93
70534;SHT31;58088;51.186;17.130;2023-08-06T09:04:59;17.27;80.82
70534;SHT31;58088;51.186;17.130;2023-08-06T09:07:34;17.25;80.83
70534;SHT31;58088;51.186;17.130;2023-08-06T09:10:09;17.26;80.86
70534;SHT31;58088;51.186;17.130;2023-08-06T09:12:39;17.27;80.81
70534;SHT31;58088;51.186;17.130;2023-08-06T09:15:12;17.26;80.80
70534;SHT31;58088;51.186;17.130;2023-08-06T09:17:38;17.26;80.82
70534;SHT31;58088;51.186;17.130;2023-08-06T09:20:14;17.25;80.87
70534;SHT31;58088;51.186;17.130;2023-08-06T09:22:41;17.25;80.95
70534;SHT31;58088;51.186;17.130;2023-08-06T09:25:08;17.26;80.95
70534;SHT31;58088;51.186;17.130;2023-08-06T09:27:39;17.27;80.93
70534;SHT31;58088;51.186;17.130;2023-08-06T09:30:06;17.29;80.95
70534;SHT31;58088;51.186;17.130;2023-08-06T09:32:44;17.30;80.89
70534;SHT31;58088;51.186;17.130;2023-08-06T09:35:18;17.29;80.77
70534;SHT31;58088;51.186;17.130;2023-08-06T09:37:45;17.29;80.76
70534;SHT31;58088;51.186;17.130;2023-08-06T09:40:24;17.25;80.73
70534;SHT31;58088;51.186;17.130;2023-08-06T09:42:56;17.22;80.71
70534;SHT31;58088;51.186;17.130;2023-08-06T09:45:34;17.20;80.78
70534;SHT31;58088;51.186;17.130;2023-08-06T09:48:03;17.20;80.81
70534;SHT31;58088;51.186;17.130;2023-08-06T09:50:33;17.23;80.88
70534;SHT31;58088;51.186;17.130;2023-08-06T09:53:05;17.26;80.77
70534;SHT31;58088;51.186;17.130;2023-08-06T09:55:34;17.28;80.84
70534;SHT31;58088;51.186;17.130;2023-08-06T09:58:01;17.31;80.83
70534;SHT31;58088;51.186;17.130;2023-08-06T10:00:29;17.32;80.76
70534;SHT31;58088;51.186;17.130;2023-08-06T10:02:59;17.30;80.71
70534;SHT31;58088;51.186;17.130;2023-08-06T10:05:27;17.29;80.70
70534;SHT31;58088;51.186;17.130;2023-08-06T10:07:53;17.29;80.72
70534;SHT31;58088;51.186;17.130;2023-08-06T10:10:22;17.26;80.65
70534;SHT31;58088;51.186;17.130;2023-08-06T10:12:50;17.26;80.71
70534;SHT31;58088;51.186;17.130;2023-08-06T10:15:22;17.29;80.69
70534;SHT31;58088;51.186;17.130;2023-08-06T10:17:54;17.28;80.66
70534;SHT31;58088;51.186;17.130;2023-08-06T10:20:24;17.26;80.69
70534;SHT31;58088;51.186;17.130;2023-08-06T10:23:00;17.25;80.76
70534;SHT31;58088;51.186;17.130;2023-08-06T10:25:32;17.26;80.85
70534;SHT31;58088;51.186;17.130;2023-08-06T10:28:10;17.26;80.95
70534;SHT31;58088;51.186;17.130;2023-08-06T10:30:41;17.26;80.97
70534;SHT31;58088;51.186;17.130;2023-08-06T10:33:10;17.28;81.03
70534;SHT31;58088;51.186;17.130;2023-08-06T10:38:10;17.32;81.07
70534;SHT31;58088;51.186;17.130;2023-08-06T10:43:34;17.32;80.98
70534;SHT31;58088;51.186;17.130;2023-08-06T10:46:04;17.37;81.15
70534;SHT31;58088;51.186;17.130;2023-08-06T10:48:38;17.42;81.11
70534;SHT31;58088;51.186;17.130;2023-08-06T10:51:07;17.45;81.02
70534;SHT31;58088;51.186;17.130;2023-08-06T10:53:36;17.46;80.99
70534;SHT31;58088;51.186;17.130;2023-08-06T10:56:14;17.46;80.97
70534;SHT31;58088;51.186;17.130;2023-08-06T10:58:47;17.47;80.99
70534;SHT31;58088;51.186;17.130;2023-08-06T11:01:16;17.47;80.91
70534;SHT31;58088;51.186;17.130;2023-08-06T11:03:43;17.48;81.06
70534;SHT31;58088;51.186;17.130;2023-08-06T11:06:16;17.52;81.06
70534;SHT31;58088;51.186;17.130;2023-08-06T11:08:51;17.55;81.26
70534;SHT31;58088;51.186;17.130;2023-08-06T11:11:20;17.60;81.25
70534;SHT31;58088;51.186;17.130;2023-08-06T11:13:49;17.62;81.18
70534;SHT31;58088;51.186;17.130;2023-08-06T11:16:17;17.63;81.17
70534;SHT31;58088;51.186;17.130;2023-08-06T11:18:48;17.66;81.22
70534;SHT31;58088;51.186;17.130;2023-08-06T11:21:18;17.68;81.09
70534;SHT31;58088;51.186;17.130;2023-08-06T11:23:45;17.69;81.08
70534;SHT31;58088;51.186;17.130;2023-08-06T11:26:12;17.72;81.19
70534;SHT31;58088;51.186;17.130;2023-08-06T11:28:38;17.76;81.18
70534;SHT31;58088;51.186;17.130;2023-08-06T11:31:05;17.81;81.11
70534;SHT31;58088;51.186;17.130;2023-08-06T11:33:32;17.83;81.05
70534;SHT31;58088;51.186;17.130;2023-08-06T11:35:58;17.86;81.03
70534;SHT31;58088;51.186;17.130;2023-08-06T11:38:27;17.86;80.89
70534;SHT31;58088;51.186;17.130;2023-08-06T11:40:54;17.83;80.82
70534;SHT31;58088;51.186;17.130;2023-08-06T11:43:21;17.80;80.77
70534;SHT31;58088;51.186;17.130;2023-08-06T11:45:48;17.80;80.87
70534;SHT31;58088;51.186;17.130;2023-08-06T11:48:16;17.82;80.81
70534;SHT31;58088;51.186;17.130;2023-08-06T11:50:43;17.82;80.84
70534;SHT31;58088;51.186;17.130;2023-08-06T11:53:11;17.82;80.83
70534;SHT31;58088;51.186;17.130;2023-08-06T11:55:40;17.81;80.85
70534;SHT31;58088;51.186;17.130;2023-08-06T11:58:08;17.80;80.75
70534;SHT31;58088;51.186;17.130;2023-08-06T12:00:38;17.79;80.70
70534;SHT31;58088;51.186;17.130;2023-08-06T12:03:04;17.73;80.73
70534;SHT31;58088;51.186;17.130;2023-08-06T12:05:31;17.70;80.95
70534;SHT31;58088;51.186;17.130;2023-08-06T12:07:59;17.69;80.82
70534;SHT31;58088;51.186;17.130;2023-08-06T12:10:29;17.68;80.88
70534;SHT31;58088;51.186;17.130;2023-08-06T12:12:57;17.69;80.88
70534;SHT31;58088;51.186;17.130;2023-08-06T12:15:24;17.68;80.79
70534;SHT31;58088;51.186;17.130;2023-08-06T12:17:50;17.67;80.83
70534;SHT31;58088;51.186;17.130;2023-08-06T12:20:17;17.68;80.87
70534;SHT31;58088;51.186;17.130;2023-08-06T12:22:44;17.67;80.86
70534;SHT31;58088;51.186;17.130;2023-08-06T12:25:11;17.67;80.86
70534;SHT31;58088;51.186;17.130;2023-08-06T12:27:38;17.69;80.87
70534;SHT31;58088;51.186;17.130;2023-08-06T12:30:07;17.68;80.84
70534;SHT31;58088;51.186;17.130;2023-08-06T12:32:35;17.69;80.87
70534;SHT31;58088;51.186;17.130;2023-08-06T12:35:02;17.68;80.80
70534;SHT31;58088;51.186;17.130;2023-08-06T12:37:29;17.66;80.75
70534;SHT31;58088;51.186;17.130;2023-08-06T12:39:55;17.63;80.78
70534;SHT31;58088;51.186;17.130;2023-08-06T12:42:21;17.60;80.71
70534;SHT31;58088;51.186;17.130;2023-08-06T12:44:48;17.57;80.84
70534;SHT31;58088;51.186;17.130;2023-08-06T12:47:15;17.59;80.81
70534;SHT31;58088;51.186;17.130;2023-08-06T12:49:43;17.59;80.81
70534;SHT31;58088;51.186;17.130;2023-08-06T12:52:12;17.58;80.82
70534;SHT31;58088;51.186;17.130;2023-08-06T12:54:40;17.57;80.86
70534;SHT31;58088;51.186;17.130;2023-08-06T12:57:07;17.60;80.94
70534;SHT31;58088;51.186;17.130;2023-08-06T12:59:33;17.61;80.93
70534;SHT31;58088;51.186;17.130;2023-08-06T13:02:02;17.63;80.99
70534;SHT31;58088;51.186;17.130;2023-08-06T13:04:29;17.65;80.95
70534;SHT31;58088;51.186;17.130;2023-08-06T13:06:57;17.66;80.91
70534;SHT31;58088;51.186;17.130;2023-08-06T13:09:24;17.67;80.92
70534;SHT31;58088;51.186;17.130;2023-08-06T13:11:51;17.70;80.99
70534;SHT31;58088;51.186;17.130;2023-08-06T13:14:18;17.72;81.09
70534;SHT31;58088;51.186;17.130;2023-08-06T13:16:47;17.74;81.02
70534;SHT31;58088;51.186;17.130;2023-08-06T13:19:14;17.74;80.98
70534;SHT31;58088;51.186;17.130;2023-08-06T13:24:07;17.77;81.17
70534;SHT31;58088;51.186;17.130;2023-08-06T13:26:35;17.80;81.02
70534;SHT31;58088;51.186;17.130;2023-08-06T13:29:02;17.78;80.98
70534;SHT31;58088;51.186;17.130;2023-08-06T13:31:28;17.79;81.02
70534;SHT31;58088;51.186;17.130;2023-08-06T13:33:56;17.78;80.96
70534;SHT31;58088;51.186;17.130;2023-08-06T13:36:26;17.71;81.04
70534;SHT31;58088;51.186;17.130;2023-08-06T13:38:54;17.67;81.09
70534;SHT31;58088;51.186;17.130;2023-08-06T13:41:21;17.68;81.24
70534;SHT31;58088;51.186;17.130;2023-08-06T13:43:49;17.72;81.28
70534;SHT31;58088;51.186;17.130;2023-08-06T13:46:17;17.75;81.25
70534;SHT31;58088;51.186;17.130;2023-08-06T13:48:46;17.77;81.18
70534;SHT31;58088;51.186;17.130;2023-08-06T13:51:17;17.74;81.13
70534;SHT31;58088;51.186;17.130;2023-08-06T13:53:44;17.74;81.20
70534;SHT31;58088;51.186;17.130;2023-08-06T13:56:11;17.74;81.22
70534;SHT31;58088;51.186;17.130;2023-08-06T13:58:40;17.74;81.25
70534;SHT31;58088;51.186;17.130;2023-08-06T14:01:09;17.71;81.22
70534;SHT31;58088;51.186;17.130;2023-08-06T14:03:37;17.72;81.22
70534;SHT31;58088;51.186;17.130;2023-08-06T14:06:04;17.71;81.27
70534;SHT31;58088;51.186;17.130;2023-08-06T14:08:31;17.70;81.29
70534;SHT31;58088;51.186;17.130;2023-08-06T14:10:58;17.70;81.22
70534;SHT31;58088;51.186;17.130;2023-08-06T14:13:26;17.68;81.18
70534;SHT31;58088;51.186;17.130;2023-08-06T14:15:53;17.66;81.21
70534;SHT31;58088;51.186;17.130;2023-08-06T14:18:20;17.65;81.22
70534;SHT31;58088;51.186;17.130;2023-08-06T14:20:47;17.65;81.24
70534;SHT31;58088;51.186;17.130;2023-08-06T14:23:14;17.64;81.28
70534;SHT31;58088;51.186;17.130;2023-08-06T14:25:41;17.63;81.23
70534;SHT31;58088;51.186;17.130;2023-08-06T14:28:07;17.63;81.25
70534;SHT31;58088;51.186;17.130;2023-08-06T14:30:34;17.60;81.19
70534;SHT31;58088;51.186;17.130;2023-08-06T14:33:02;17.59;81.13
70534;SHT31;58088;51.186;17.130;2023-08-06T14:35:31;17.56;81.03
70534;SHT31;58088;51.186;17.130;2023-08-06T14:37:57;17.53;81.04
70534;SHT31;58088;51.186;17.130;2023-08-06T14:40:24;17.58;81.08
70534;SHT31;58088;51.186;17.130;2023-08-06T14:42:54;17.59;81.02
70534;SHT31;58088;51.186;17.130;2023-08-06T14:45:21;17.54;81.06
70534;SHT31;58088;51.186;17.130;2023-08-06T14:47:50;17.54;81.09
70534;SHT31;58088;51.186;17.130;2023-08-06T14:50:20;17.56;81.05
70534;SHT31;58088;51.186;17.130;2023-08-06T14:52:47;17.54;81.13
70534;SHT31;58088;51.186;17.130;2023-08-06T14:55:23;17.53;81.11
70534;SHT31;58088;51.186;17.130;2023-08-06T14:57:51;17.51;81.08
70534;SHT31;58088;51.186;17.130;2023-08-06T15:00:19;17.52;81.08
70534;SHT31;58088;51.186;17.130;2023-08-06T15:02:47;17.51;81.08
70534;SHT31;58088;51.186;17.130;2023-08-06T15:05:16;17.50;81.08
70534;SHT31;58088;51.186;17.130;2023-08-06T15:07:43;17.51;81.11
70534;SHT31;58088;51.186;17.130;2023-08-06T15:10:10;17.51;81.16
70534;SHT31;58088;51.186;17.130;2023-08-06T15:12:37;17.53;81.23
70534;SHT31;58088;51.186;17.130;2023-08-06T15:15:06;17.57;81.23
70534;SHT31;58088;51.186;17.130;2023-08-06T15:17:35;17.59;81.23
70534;SHT31;58088;51.186;17.130;2023-08-06T15:20:02;17.56;81.20
70534;SHT31;58088;51.186;17.130;2023-08-06T15:22:30;17.55;81.20
70534;SHT31;58088;51.186;17.130;2023-08-06T15:25:00;17.55;81.21
70534;SHT31;58088;51.186;17.130;2023-08-06T15:27:28;17.55;81.19
70534;SHT31;58088;51.186;17.130;2023-08-06T15:29:56;17.54;81.18